createdAt,value
2023-03-26T00:00:15.744Z,8.4
2023-03-26T00:01:15.754Z,10.4
2023-03-26T00:02:15.770Z,11.1
2023-03-26T00:03:15.728Z,9.4
2023-03-26T00:04:15.701Z,7.5
2023-03-26T00:05:15.637Z,10.5
2023-03-26T00:06:15.660Z,7.9
2023-03-26T00:07:15.769Z,8.5
2023-03-26T00:08:15.610Z,12.8
2023-03-26T00:09:15.679Z,10.1
2023-03-26T00:10:15.618Z,10.0
2023-03-26T00:11:15.650Z,9.2
2023-03-26T00:12:15.681Z,9.2
2023-03-26T00:13:15.707Z,8.3
2023-03-26T00:14:15.673Z,8.3
2023-03-26T00:15:15.633Z,8.8
2023-03-26T00:16:16.908Z,10.4
2023-03-26T00:17:15.611Z,12.3
2023-03-26T00:18:15.709Z,10.5
2023-03-26T00:19:18.559Z,15.5
2023-03-26T00:20:15.689Z,28.0
2023-03-26T00:21:15.610Z,32.8
2023-03-26T00:22:15.606Z,44.4
2023-03-26T00:23:15.663Z,37.0
2023-03-26T00:24:15.607Z,17.9
2023-03-26T00:25:15.673Z,18.7
2023-03-26T00:26:15.622Z,27.1
2023-03-26T00:27:15.623Z,14.0
2023-03-26T00:28:15.634Z,11.6
2023-03-26T00:29:15.712Z,10.5
2023-03-26T00:30:15.587Z,12.3
2023-03-26T00:31:15.647Z,9.5
2023-03-26T00:32:15.731Z,11.8
2023-03-26T00:33:15.594Z,10.7
2023-03-26T00:34:15.895Z,8.8
2023-03-26T00:35:15.604Z,10.3
2023-03-26T00:36:15.682Z,8.6
2023-03-26T00:37:15.778Z,8.8
2023-03-26T00:38:15.591Z,9.9
2023-03-26T00:39:15.605Z,8.1
2023-03-26T00:40:15.694Z,9.0
2023-03-26T00:41:15.618Z,7.2
2023-03-26T00:42:15.604Z,8.2
2023-03-26T00:43:16.798Z,7.9
2023-03-26T00:44:15.542Z,8.8
2023-03-26T00:45:15.668Z,9.4
2023-03-26T00:46:15.684Z,9.7
2023-03-26T00:47:15.583Z,9.2
2023-03-26T00:48:15.785Z,8.9
2023-03-26T00:49:15.671Z,9.3
2023-03-26T00:50:15.710Z,9.1
2023-03-26T00:51:15.750Z,7.5
2023-03-26T00:52:15.687Z,9.0
2023-03-26T00:53:15.635Z,7.8
2023-03-26T00:54:15.598Z,8.3
2023-03-26T00:55:15.639Z,9.2
2023-03-26T00:56:15.590Z,9.1
2023-03-26T00:57:25.673Z,9.1
2023-03-26T00:58:15.600Z,8.2
2023-03-26T00:59:15.811Z,8.3
2023-03-26T01:00:15.582Z,8.1
2023-03-26T01:01:15.602Z,10.5
2023-03-26T01:02:15.625Z,9.2
2023-03-26T01:03:26.690Z,10.8
2023-03-26T01:04:15.715Z,9.9
2023-03-26T01:05:15.596Z,10.2
2023-03-26T01:06:15.542Z,10.8
2023-03-26T01:07:15.559Z,9.8
2023-03-26T01:08:15.615Z,9.3
2023-03-26T01:09:15.623Z,8.4
2023-03-26T01:10:16.720Z,10.4
2023-03-26T01:11:15.543Z,10.5
2023-03-26T01:12:15.588Z,10.3
2023-03-26T01:13:15.537Z,6.7
2023-03-26T01:14:15.641Z,7.4
2023-03-26T01:15:15.500Z,7.8
2023-03-26T01:16:15.573Z,7.0
2023-03-26T01:17:15.622Z,8.7
2023-03-26T01:18:15.530Z,7.8
2023-03-26T01:19:15.534Z,9.0
2023-03-26T01:20:15.541Z,7.8
2023-03-26T01:21:15.534Z,9.0
2023-03-26T01:22:15.617Z,9.1
2023-03-26T01:23:15.558Z,9.5
2023-03-26T01:24:15.561Z,8.0
2023-03-26T01:25:15.675Z,8.6
2023-03-26T01:26:15.515Z,9.1
2023-03-26T01:27:15.533Z,8.1
2023-03-26T01:28:15.627Z,8.2
2023-03-26T01:29:15.511Z,7.7
2023-03-26T01:30:15.506Z,8.3
2023-03-26T01:31:15.630Z,12.2
2023-03-26T01:32:15.543Z,7.3
2023-03-26T01:33:15.698Z,7.0
2023-03-26T01:34:15.464Z,8.6
2023-03-26T01:35:15.494Z,11.7
2023-03-26T01:36:15.561Z,9.1
2023-03-26T01:37:16.833Z,11.5
2023-03-26T01:38:15.510Z,12.3
2023-03-26T01:39:15.526Z,10.0
2023-03-26T01:40:15.494Z,11.6
2023-03-26T01:41:15.478Z,13.9
2023-03-26T01:42:15.634Z,13.3
2023-03-26T01:43:15.492Z,10.2
2023-03-26T01:44:15.559Z,11.5
2023-03-26T01:45:15.660Z,10.6
2023-03-26T01:46:15.528Z,10.0
2023-03-26T01:47:15.506Z,9.5
2023-03-26T01:48:15.554Z,9.0
2023-03-26T01:49:15.535Z,8.0
2023-03-26T01:50:15.501Z,7.3
2023-03-26T01:51:16.687Z,8.8
2023-03-26T01:52:15.624Z,7.9
2023-03-26T01:53:15.606Z,9.6
2023-03-26T01:54:15.466Z,7.1
2023-03-26T01:55:15.469Z,7.8
2023-03-26T01:56:15.486Z,9.9
2023-03-26T01:57:15.520Z,8.7
2023-03-26T01:58:15.498Z,10.0
2023-03-26T01:59:15.501Z,12.4
2023-03-26T02:00:15.428Z,12.9
2023-03-26T02:01:15.436Z,13.8
2023-03-26T02:02:15.624Z,15.7
2023-03-26T02:03:15.526Z,13.2
2023-03-26T02:04:15.669Z,12.6
2023-03-26T02:05:15.437Z,12.6
2023-03-26T02:06:15.443Z,13.5
2023-03-26T02:07:15.450Z,13.1
2023-03-26T02:08:15.521Z,13.1
2023-03-26T02:09:15.569Z,12.2
2023-03-26T02:10:15.480Z,10.7
2023-03-26T02:11:16.480Z,13.4
2023-03-26T02:12:15.420Z,15.7
2023-03-26T02:13:15.468Z,11.5
2023-03-26T02:14:15.444Z,10.7
2023-03-26T02:15:15.527Z,11.2
2023-03-26T02:16:15.454Z,9.7
2023-03-26T02:17:15.427Z,10.7
2023-03-26T02:18:15.420Z,16.5
2023-03-26T02:19:15.491Z,8.6
2023-03-26T02:20:15.436Z,9.4
2023-03-26T02:21:15.410Z,11.8
2023-03-26T02:22:15.415Z,8.5
2023-03-26T02:23:15.433Z,8.6
2023-03-26T02:24:15.464Z,8.9
2023-03-26T02:25:15.408Z,9.8
2023-03-26T02:26:15.578Z,10.1
2023-03-26T02:27:15.366Z,9.7
2023-03-26T02:28:15.402Z,11.0
2023-03-26T02:29:15.418Z,9.9
2023-03-26T02:30:15.398Z,10.0
2023-03-26T02:31:15.421Z,11.5
2023-03-26T02:32:15.384Z,11.9
2023-03-26T02:33:15.462Z,10.4
2023-03-26T02:34:15.395Z,12.9
2023-03-26T02:35:15.449Z,14.0
2023-03-26T02:36:15.499Z,50.1
2023-03-26T02:37:15.479Z,50.2
2023-03-26T02:38:15.400Z,34.6
2023-03-26T02:39:15.431Z,23.4
2023-03-26T02:40:15.352Z,16.0
2023-03-26T02:41:15.378Z,13.3
2023-03-26T02:42:15.438Z,13.2
2023-03-26T02:43:15.404Z,13.3
2023-03-26T02:44:15.375Z,10.4
2023-03-26T02:45:15.390Z,10.9
2023-03-26T02:46:15.377Z,11.2
2023-03-26T02:47:15.342Z,10.1
2023-03-26T02:51:15.378Z,12.5
2023-03-26T02:52:15.332Z,9.1
2023-03-26T02:53:15.356Z,10.0
2023-03-26T02:54:15.420Z,9.5
2023-03-26T02:55:15.476Z,9.0
2023-03-26T02:56:15.414Z,9.7
2023-03-26T02:57:15.385Z,8.0
2023-03-26T02:58:15.409Z,10.2
2023-03-26T02:59:15.458Z,9.2
2023-03-26T03:00:15.421Z,9.7
2023-03-26T03:01:15.558Z,9.3
2023-03-26T03:02:15.387Z,9.1
2023-03-26T03:03:15.384Z,9.4
2023-03-26T03:04:15.317Z,7.3
2023-03-26T03:05:15.379Z,7.6
2023-03-26T03:06:15.309Z,8.0
2023-03-26T03:07:15.301Z,12.2
2023-03-26T03:08:15.456Z,10.8
2023-03-26T03:09:15.411Z,10.0
2023-03-26T03:10:15.374Z,8.1
2023-03-26T03:11:15.327Z,7.0
2023-03-26T03:12:15.455Z,7.3
2023-03-26T03:13:15.384Z,9.5
2023-03-26T03:14:15.438Z,7.5
2023-03-26T03:17:15.352Z,11.8
2023-03-26T03:18:15.407Z,9.3
2023-03-26T03:19:15.291Z,8.7
2023-03-26T03:20:15.281Z,7.8
2023-03-26T03:21:15.325Z,9.0
2023-03-26T03:22:15.343Z,12.6
2023-03-26T03:23:15.477Z,11.3
2023-03-26T03:24:15.293Z,7.7
2023-03-26T03:25:15.282Z,7.8
2023-03-26T03:26:15.262Z,9.9
2023-03-26T03:27:15.288Z,10.2
2023-03-26T03:28:15.320Z,8.4
2023-03-26T03:29:15.290Z,8.7
2023-03-26T03:30:15.296Z,11.5
2023-03-26T03:31:15.344Z,9.6
2023-03-26T03:32:15.315Z,13.3
2023-03-26T03:33:15.318Z,9.5
2023-03-26T03:34:15.471Z,10.8
2023-03-26T03:35:15.339Z,12.3
2023-03-26T03:36:20.259Z,13.1
2023-03-26T03:37:15.263Z,13.8
2023-03-26T03:38:15.274Z,18.2
2023-03-26T03:39:15.295Z,18.7
2023-03-26T03:40:15.320Z,17.0
2023-03-26T03:41:15.339Z,20.2
2023-03-26T03:42:15.517Z,20.6
2023-03-26T03:43:15.431Z,20.4
2023-03-26T03:44:15.283Z,19.0
2023-03-26T03:45:15.492Z,19.1
2023-03-26T03:46:15.392Z,17.6
2023-03-26T03:47:15.252Z,16.8
2023-03-26T03:48:15.298Z,16.2
2023-03-26T03:49:15.341Z,18.3
2023-03-26T03:50:15.320Z,14.4
2023-03-26T03:51:15.305Z,15.8
2023-03-26T03:52:15.342Z,15.2
2023-03-26T03:53:15.221Z,16.4
2023-03-26T03:54:15.272Z,14.5
2023-03-26T03:55:15.338Z,14.3
2023-03-26T03:56:15.422Z,11.9
2023-03-26T03:57:15.266Z,13.6
2023-03-26T03:58:15.255Z,13.5
2023-03-26T03:59:15.363Z,15.1
2023-03-26T04:00:15.280Z,11.2
2023-03-26T04:01:15.319Z,14.2
2023-03-26T04:02:15.278Z,11.9
2023-03-26T04:03:15.281Z,12.9
2023-03-26T04:04:15.360Z,9.7
2023-03-26T04:05:15.344Z,10.1
2023-03-26T04:06:15.224Z,10.4
2023-03-26T04:07:15.399Z,8.3
2023-03-26T04:08:15.230Z,8.5
2023-03-26T04:09:15.262Z,10.0
2023-03-26T04:10:15.264Z,9.1
2023-03-26T04:11:15.216Z,10.1
2023-03-26T04:12:15.254Z,9.3
2023-03-26T04:13:15.274Z,10.4
2023-03-26T04:14:15.287Z,10.7
2023-03-26T04:15:15.283Z,12.8
2023-03-26T04:16:15.247Z,9.8
2023-03-26T04:17:15.236Z,10.8
2023-03-26T04:18:15.269Z,13.0
2023-03-26T04:19:15.315Z,8.6
2023-03-26T04:20:15.216Z,9.6
2023-03-26T04:21:15.196Z,15.0
2023-03-26T04:22:15.221Z,11.5
2023-03-26T04:23:15.170Z,11.1
2023-03-26T04:24:15.173Z,11.1
2023-03-26T04:25:15.184Z,11.2
2023-03-26T04:26:15.233Z,13.2
2023-03-26T04:27:15.169Z,11.1
2023-03-26T04:28:15.222Z,11.7
2023-03-26T04:29:15.173Z,12.4
2023-03-26T04:30:15.256Z,12.1
2023-03-26T04:31:15.303Z,12.1
2023-03-26T04:32:15.289Z,11.9
2023-03-26T04:33:15.211Z,12.0
2023-03-26T04:34:15.162Z,9.4
2023-03-26T04:35:15.251Z,9.8
2023-03-26T04:36:15.159Z,8.8
2023-03-26T04:37:15.233Z,8.1
2023-03-26T04:38:15.208Z,9.9
2023-03-26T04:39:15.180Z,8.5
2023-03-26T04:40:15.203Z,7.7
2023-03-26T04:41:15.314Z,7.4
2023-03-26T04:42:15.214Z,7.3
2023-03-26T04:43:16.349Z,9.8
2023-03-26T04:44:15.121Z,6.2
2023-03-26T04:45:15.147Z,8.3
2023-03-26T04:46:15.236Z,10.2
2023-03-26T04:47:15.162Z,10.1
2023-03-26T04:48:15.148Z,7.3
2023-03-26T04:49:15.254Z,7.5
2023-03-26T04:50:15.154Z,6.2
2023-03-26T04:51:15.163Z,8.0
2023-03-26T04:52:15.390Z,8.8
2023-03-26T04:53:15.146Z,7.2
2023-03-26T04:54:15.223Z,9.3
2023-03-26T04:55:15.185Z,12.1
2023-03-26T04:56:15.144Z,10.0
2023-03-26T04:57:15.194Z,8.1
2023-03-26T04:58:23.477Z,9.1
2023-03-26T04:59:15.161Z,6.5
2023-03-26T05:00:15.137Z,8.7
2023-03-26T05:01:15.189Z,9.1
2023-03-26T05:02:15.135Z,8.5
2023-03-26T05:03:15.346Z,8.6
2023-03-26T05:04:15.210Z,8.7
2023-03-26T05:05:15.114Z,10.9
2023-03-26T05:06:15.128Z,8.7
2023-03-26T05:07:15.135Z,7.2
2023-03-26T05:08:15.138Z,7.6
2023-03-26T05:09:15.116Z,7.9
2023-03-26T05:10:15.133Z,9.4
2023-03-26T05:11:15.130Z,8.3
2023-03-26T05:12:15.099Z,7.8
2023-03-26T05:13:15.233Z,8.6
2023-03-26T05:14:15.090Z,10.1
2023-03-26T05:15:15.113Z,7.5
2023-03-26T05:16:15.212Z,7.9
2023-03-26T05:17:15.069Z,67.0
2023-03-26T05:18:15.136Z,38.1
2023-03-26T05:19:15.201Z,19.1
2023-03-26T05:20:15.074Z,69.2
2023-03-26T05:21:15.148Z,32.8
2023-03-26T05:22:15.096Z,14.3
2023-03-26T05:23:15.106Z,17.5
2023-03-26T05:24:15.264Z,12.9
2023-03-26T05:25:15.116Z,14.2
2023-03-26T05:26:15.076Z,12.5
2023-03-26T05:27:15.038Z,15.3
2023-03-26T05:28:15.091Z,16.9
2023-03-26T05:29:19.305Z,20.4
2023-03-26T05:30:15.067Z,18.0
2023-03-26T05:31:15.083Z,17.2
2023-03-26T05:32:15.105Z,17.0
2023-03-26T05:33:15.153Z,46.1
2023-03-26T05:34:32.964Z,21.5
2023-03-26T05:35:15.150Z,19.1
2023-03-26T05:36:15.054Z,18.0
2023-03-26T05:37:15.135Z,20.8
2023-03-26T05:38:15.062Z,17.6
2023-03-26T05:39:15.071Z,19.6
2023-03-26T05:40:15.142Z,18.9
2023-03-26T05:41:15.076Z,19.1
2023-03-26T05:42:15.071Z,21.0
2023-03-26T05:43:15.063Z,18.8
2023-03-26T05:44:15.039Z,23.6
2023-03-26T05:45:15.130Z,24.3
2023-03-26T05:46:15.126Z,19.6
2023-03-26T05:47:15.179Z,19.9
2023-03-26T05:48:15.053Z,19.0
2023-03-26T05:49:15.126Z,17.2
2023-03-26T05:50:15.026Z,18.0
2023-03-26T05:51:15.094Z,15.0
2023-03-26T05:52:15.038Z,12.8
2023-03-26T05:53:15.144Z,9.2
2023-03-26T05:54:15.018Z,10.0
2023-03-26T05:55:15.017Z,11.4
2023-03-26T05:56:21.433Z,9.2
2023-03-26T05:57:15.187Z,8.2
2023-03-26T05:58:15.106Z,8.1
2023-03-26T05:59:15.040Z,8.1
2023-03-26T06:00:15.058Z,8.6
2023-03-26T06:01:15.030Z,9.4
2023-03-26T06:02:15.063Z,9.3
2023-03-26T06:03:15.202Z,9.1
2023-03-26T06:04:15.203Z,7.0
2023-03-26T06:05:14.981Z,7.3
2023-03-26T06:06:15.000Z,7.1
2023-03-26T06:07:15.182Z,7.8
2023-03-26T06:08:15.016Z,8.9
2023-03-26T06:09:25.514Z,10.4
2023-03-26T06:10:18.297Z,7.5
2023-03-26T06:11:15.013Z,8.7
2023-03-26T06:12:14.998Z,8.6
2023-03-26T06:13:15.048Z,9.3
2023-03-26T06:14:15.008Z,9.8
2023-03-26T06:15:14.976Z,8.4
2023-03-26T06:16:26.337Z,8.0
2023-03-26T06:17:14.996Z,8.6
2023-03-26T06:18:15.006Z,9.3
2023-03-26T06:19:15.070Z,6.3
2023-03-26T06:20:14.999Z,7.8
2023-03-26T06:21:15.016Z,6.7
2023-03-26T06:22:15.003Z,6.2
2023-03-26T06:23:15.052Z,6.3
2023-03-26T06:24:19.445Z,6.9
2023-03-26T06:25:14.952Z,6.2
2023-03-26T06:26:14.988Z,6.6
2023-03-26T06:27:14.964Z,7.0
2023-03-26T06:28:14.977Z,6.2
2023-03-26T06:29:15.008Z,9.9
2023-03-26T06:30:15.085Z,6.4
2023-03-26T06:31:16.206Z,8.3
2023-03-26T06:32:19.685Z,7.4
2023-03-26T06:33:15.013Z,8.9
2023-03-26T06:34:14.983Z,9.3
2023-03-26T06:35:14.990Z,10.4
2023-03-26T06:36:15.046Z,11.2
2023-03-26T06:37:14.952Z,15.9
2023-03-26T06:38:15.010Z,10.1
2023-03-26T06:39:15.009Z,9.9
2023-03-26T06:40:15.938Z,13.9
2023-03-26T06:41:14.980Z,10.8
2023-03-26T06:42:14.978Z,14.8
2023-03-26T06:43:14.973Z,11.3
2023-03-26T06:44:14.985Z,13.7
2023-03-26T06:45:14.977Z,10.5
2023-03-26T06:46:14.988Z,12.3
2023-03-26T06:47:14.962Z,11.6
2023-03-26T06:48:14.952Z,11.7
2023-03-26T06:49:14.928Z,10.5
2023-03-26T06:50:14.939Z,11.5
2023-03-26T06:51:14.951Z,9.7
2023-03-26T06:52:15.109Z,11.7
2023-03-26T06:53:14.935Z,10.3
2023-03-26T06:54:14.941Z,10.4
2023-03-26T06:55:14.980Z,9.9
2023-03-26T06:56:16.590Z,10.4
2023-03-26T06:57:14.936Z,9.0
2023-03-26T06:58:14.942Z,8.2
2023-03-26T06:59:14.934Z,13.4
2023-03-26T07:00:14.930Z,13.6
2023-03-26T07:01:14.978Z,13.2
2023-03-26T07:02:14.918Z,12.1
2023-03-26T07:03:15.130Z,16.3
2023-03-26T07:04:14.973Z,11.5
2023-03-26T07:05:14.924Z,11.3
2023-03-26T07:06:14.949Z,15.7
2023-03-26T07:07:14.902Z,11.9
2023-03-26T07:08:14.950Z,11.7
2023-03-26T07:09:14.916Z,10.2
2023-03-26T07:10:14.949Z,11.3
2023-03-26T07:11:14.934Z,12.6
2023-03-26T07:12:14.897Z,11.9
2023-03-26T07:13:14.919Z,9.0
2023-03-26T07:14:15.027Z,12.4
2023-03-26T07:15:14.947Z,9.6
2023-03-26T07:16:14.881Z,12.7
2023-03-26T07:17:14.934Z,12.5
2023-03-26T07:18:14.897Z,11.4
2023-03-26T07:19:14.922Z,12.4
2023-03-26T07:20:14.889Z,13.9
2023-03-26T07:21:14.874Z,12.7
2023-03-26T07:22:14.944Z,12.1
2023-03-26T07:23:14.878Z,13.0
2023-03-26T07:24:14.862Z,11.9
2023-03-26T07:25:14.955Z,10.8
2023-03-26T07:26:15.036Z,9.0
2023-03-26T07:27:14.952Z,11.5
2023-03-26T07:28:14.910Z,10.1
2023-03-26T07:29:14.917Z,15.0
2023-03-26T07:30:14.892Z,9.8
2023-03-26T07:31:14.880Z,9.2
2023-03-26T07:32:16.669Z,8.1
2023-03-26T07:33:14.847Z,11.6
2023-03-26T07:34:14.925Z,11.0
2023-03-26T07:35:14.930Z,11.0
2023-03-26T07:36:14.852Z,10.5
2023-03-26T07:37:14.898Z,11.3
2023-03-26T07:38:14.919Z,15.7
2023-03-26T07:39:14.939Z,10.1
2023-03-26T07:40:14.948Z,17.2
2023-03-26T07:41:14.853Z,15.0
2023-03-26T07:42:14.891Z,14.8
2023-03-26T07:43:14.882Z,25.7
2023-03-26T07:44:14.937Z,16.0
2023-03-26T07:45:14.974Z,57.1
2023-03-26T07:46:14.925Z,33.0
2023-03-26T07:47:15.018Z,33.2
2023-03-26T07:48:14.830Z,35.4
2023-03-26T07:49:14.805Z,43.8
2023-03-26T07:50:16.058Z,35.8
2023-03-26T07:51:34.994Z,19.6
2023-03-26T07:52:14.876Z,15.2
2023-03-26T07:53:14.913Z,17.0
2023-03-26T07:54:14.805Z,15.3
2023-03-26T07:55:14.863Z,13.1
2023-03-26T07:56:14.873Z,10.4
2023-03-26T07:57:14.928Z,14.3
2023-03-26T07:58:15.274Z,11.7
2023-03-26T07:59:14.812Z,13.2
2023-03-26T08:00:14.834Z,25.0
2023-03-26T08:01:14.830Z,16.8
2023-03-26T08:02:15.155Z,11.3
2023-03-26T08:03:15.097Z,9.5
2023-03-26T08:04:24.047Z,9.5
2023-03-26T08:05:14.877Z,9.0
2023-03-26T08:06:14.835Z,7.5
2023-03-26T08:07:16.569Z,7.9
2023-03-26T08:08:15.096Z,7.5
2023-03-26T08:09:14.836Z,7.7
2023-03-26T08:10:14.869Z,10.3
2023-03-26T08:11:28.815Z,7.8
2023-03-26T08:12:14.763Z,8.2
2023-03-26T08:13:14.801Z,8.5
2023-03-26T08:14:14.950Z,10.6
2023-03-26T08:15:14.944Z,10.0
2023-03-26T08:16:14.924Z,8.3
2023-03-26T08:17:14.847Z,8.3
2023-03-26T08:18:15.168Z,9.0
2023-03-26T08:19:15.561Z,8.9
2023-03-26T08:20:14.840Z,9.2
2023-03-26T08:21:14.786Z,8.6
2023-03-26T08:22:14.798Z,8.7
2023-03-26T08:23:14.847Z,8.1
2023-03-26T08:24:14.822Z,7.6
2023-03-26T08:25:14.757Z,7.1
2023-03-26T08:26:14.769Z,9.3
2023-03-26T08:27:14.777Z,8.5
2023-03-26T08:28:14.808Z,8.4
2023-03-26T08:29:14.764Z,9.3
2023-03-26T08:30:14.863Z,9.1
2023-03-26T08:31:14.990Z,6.3
2023-03-26T08:32:14.792Z,6.3
2023-03-26T08:33:14.723Z,5.7
2023-03-26T08:34:14.819Z,6.2
2023-03-26T08:35:14.755Z,5.9
2023-03-26T08:36:14.746Z,6.0
2023-03-26T08:37:14.741Z,6.5
2023-03-26T08:38:14.724Z,7.0
2023-03-26T08:39:14.836Z,6.0
2023-03-26T08:40:14.835Z,6.1
2023-03-26T08:41:14.786Z,6.5
2023-03-26T08:42:14.903Z,8.0
2023-03-26T08:43:14.732Z,8.4
2023-03-26T08:44:14.881Z,6.1
2023-03-26T08:45:14.738Z,7.1
2023-03-26T08:46:14.795Z,6.0
2023-03-26T08:47:14.761Z,6.9
2023-03-26T08:48:14.725Z,6.2
2023-03-26T08:49:14.737Z,5.5
2023-03-26T08:50:14.748Z,7.7
2023-03-26T08:51:14.774Z,5.0
2023-03-26T08:52:14.708Z,5.0
2023-03-26T08:53:14.881Z,6.0
2023-03-26T08:54:14.750Z,6.2
2023-03-26T08:55:14.742Z,5.4
2023-03-26T08:56:14.759Z,6.3
2023-03-26T08:57:14.787Z,5.3
2023-03-26T08:58:14.781Z,6.3
2023-03-26T08:59:14.727Z,5.2
2023-03-26T09:00:14.690Z,6.6
2023-03-26T09:01:14.726Z,5.4
2023-03-26T09:02:14.776Z,5.4
2023-03-26T09:03:14.772Z,5.7
2023-03-26T09:04:14.724Z,5.6
2023-03-26T09:05:14.713Z,6.5
2023-03-26T09:06:14.718Z,6.4
2023-03-26T09:07:14.751Z,5.9
2023-03-26T09:08:14.777Z,4.5
2023-03-26T09:09:19.326Z,5.8
2023-03-26T09:10:14.714Z,6.0
2023-03-26T09:11:14.732Z,3.6
2023-03-26T09:12:14.728Z,4.9
2023-03-26T09:13:14.730Z,4.5
2023-03-26T09:14:14.743Z,6.0
2023-03-26T09:15:14.793Z,4.1
2023-03-26T09:16:14.745Z,6.0
2023-03-26T09:17:14.857Z,8.9
2023-03-26T09:18:14.689Z,8.0
2023-03-26T09:19:14.703Z,18.0
2023-03-26T09:20:14.781Z,11.5
2023-03-26T09:21:14.702Z,6.8
2023-03-26T09:22:14.691Z,4.8
2023-03-26T09:23:15.190Z,7.3
2023-03-26T09:24:14.751Z,6.2
2023-03-26T09:25:14.727Z,21.5
2023-03-26T09:26:14.652Z,8.4
2023-03-26T09:27:14.682Z,9.7
2023-03-26T09:28:14.723Z,11.1
2023-03-26T09:29:14.763Z,7.8
2023-03-26T09:30:14.745Z,5.3
2023-03-26T09:31:14.687Z,6.0
2023-03-26T09:32:14.675Z,9.6
2023-03-26T09:33:14.672Z,7.1
2023-03-26T09:34:14.676Z,5.7
2023-03-26T09:35:14.714Z,9.0
2023-03-26T09:36:16.156Z,8.1
2023-03-26T09:37:14.836Z,6.0
2023-03-26T09:38:14.668Z,6.3
2023-03-26T09:39:14.677Z,6.9
2023-03-26T09:40:14.722Z,6.1
2023-03-26T09:41:14.625Z,4.6
2023-03-26T09:42:14.649Z,5.0
2023-03-26T09:43:14.635Z,6.6
2023-03-26T09:44:15.445Z,7.1
2023-03-26T09:45:14.749Z,103.7
2023-03-26T09:46:14.703Z,58.8
2023-03-26T09:47:14.658Z,48.6
2023-03-26T09:48:14.664Z,25.2
2023-03-26T09:49:14.643Z,21.2
2023-03-26T09:50:14.661Z,16.4
2023-03-26T09:51:14.673Z,8.6
2023-03-26T09:53:14.609Z,33.2
2023-03-26T09:54:14.608Z,22.4
2023-03-26T09:55:14.675Z,31.9
2023-03-26T09:56:15.441Z,49.4
2023-03-26T09:57:15.405Z,128.0
2023-03-26T09:58:15.390Z,129.4
2023-03-26T09:59:14.601Z,104.9
2023-03-26T10:00:14.641Z,56.5
2023-03-26T10:01:14.714Z,61.5
2023-03-26T10:02:14.647Z,65.3
2023-03-26T10:03:14.637Z,40.9
2023-03-26T10:04:14.629Z,16.4
2023-03-26T10:05:15.035Z,75.9
2023-03-26T10:06:14.727Z,40.5
2023-03-26T10:07:14.643Z,42.5
2023-03-26T10:08:14.599Z,17.6
2023-03-26T10:09:14.904Z,20.2
2023-03-26T10:10:14.603Z,33.7
2023-03-26T10:11:14.627Z,21.6
2023-03-26T10:12:14.583Z,15.7
2023-03-26T10:13:15.248Z,14.6
2023-03-26T10:14:14.595Z,10.1
2023-03-26T10:15:14.636Z,11.8
2023-03-26T10:16:14.610Z,11.5
2023-03-26T10:17:14.610Z,14.6
2023-03-26T10:18:27.069Z,11.6
2023-03-26T10:19:14.587Z,14.2
2023-03-26T10:20:14.739Z,14.7
2023-03-26T10:21:14.580Z,11.2
2023-03-26T10:22:14.567Z,10.0
2023-03-26T10:23:14.579Z,13.3
2023-03-26T10:24:14.586Z,10.1
2023-03-26T10:25:14.666Z,6.8
2023-03-26T10:26:14.565Z,7.1
2023-03-26T10:27:16.080Z,6.5
2023-03-26T10:28:18.877Z,8.5
2023-03-26T10:29:14.592Z,6.2
2023-03-26T10:30:14.638Z,9.1
2023-03-26T10:31:14.767Z,7.4
2023-03-26T10:32:14.581Z,9.3
2023-03-26T10:33:14.617Z,8.0
2023-03-26T10:34:28.426Z,9.6
2023-03-26T10:35:14.634Z,6.4
2023-03-26T10:36:14.546Z,5.2
2023-03-26T10:37:14.610Z,5.8
2023-03-26T10:38:14.546Z,5.5
2023-03-26T10:39:36.810Z,9.4
2023-03-26T10:40:14.605Z,9.8
2023-03-26T10:41:14.551Z,9.9
2023-03-26T10:42:14.654Z,15.3
2023-03-26T10:43:14.536Z,14.2
2023-03-26T10:44:14.615Z,9.5
2023-03-26T10:45:14.595Z,8.7
2023-03-26T10:46:14.606Z,9.5
2023-03-26T10:47:14.540Z,12.3
2023-03-26T10:48:14.513Z,13.4
2023-03-26T10:49:14.652Z,8.3
2023-03-26T10:50:16.070Z,11.0
2023-03-26T10:51:14.571Z,8.8
2023-03-26T10:52:14.534Z,8.9
2023-03-26T10:53:14.790Z,7.0
2023-03-26T10:54:14.586Z,17.1
2023-03-26T10:55:14.512Z,15.7
2023-03-26T10:56:14.525Z,12.3
2023-03-26T10:57:14.627Z,23.3
2023-03-26T10:58:14.506Z,14.9
2023-03-26T10:59:14.582Z,11.7
2023-03-26T11:00:14.591Z,8.6
2023-03-26T11:01:14.534Z,8.1
2023-03-26T11:02:14.559Z,6.8
2023-03-26T11:03:14.571Z,6.1
2023-03-26T11:04:14.682Z,9.1
2023-03-26T11:05:14.591Z,6.1
2023-03-26T11:06:14.527Z,7.3
2023-03-26T11:07:14.582Z,6.6
2023-03-26T11:08:14.565Z,8.1
2023-03-26T11:09:14.605Z,7.9
2023-03-26T11:10:14.481Z,6.9
2023-03-26T11:11:14.532Z,6.8
2023-03-26T11:12:25.679Z,15.2
2023-03-26T11:13:14.537Z,9.5
2023-03-26T11:14:24.322Z,9.4
2023-03-26T11:15:14.626Z,9.1
2023-03-26T11:16:14.619Z,9.8
2023-03-26T11:17:39.461Z,6.9
2023-03-26T11:18:14.500Z,8.0
2023-03-26T11:19:14.662Z,6.1
2023-03-26T11:20:14.470Z,8.0
2023-03-26T11:21:19.249Z,8.1
2023-03-26T11:22:14.477Z,8.0
2023-03-26T11:23:14.532Z,6.3
2023-03-26T11:24:14.488Z,7.1
2023-03-26T11:25:14.602Z,5.6
2023-03-26T11:26:14.715Z,5.5
2023-03-26T11:27:16.883Z,6.0
2023-03-26T11:28:14.527Z,5.9
2023-03-26T11:29:32.172Z,8.6
2023-03-26T11:30:14.571Z,9.0
2023-03-26T11:31:14.499Z,6.0
2023-03-26T11:32:14.475Z,5.6
2023-03-26T11:33:14.545Z,5.3
2023-03-26T11:34:14.479Z,4.8
2023-03-26T11:35:14.517Z,4.2
2023-03-26T11:36:14.539Z,5.9
2023-03-26T11:37:14.579Z,4.2
2023-03-26T11:38:14.522Z,6.0
2023-03-26T11:39:14.493Z,5.0
2023-03-26T11:40:14.572Z,3.6
2023-03-26T11:41:14.455Z,3.2
2023-03-26T11:42:14.544Z,5.8
2023-03-26T11:43:14.464Z,5.0
2023-03-26T11:44:14.549Z,4.4
2023-03-26T11:45:14.464Z,3.1
2023-03-26T11:46:14.469Z,3.1
2023-03-26T11:47:14.487Z,2.4
2023-03-26T11:48:14.469Z,4.1
2023-03-26T11:49:37.360Z,6.0
2023-03-26T11:50:14.462Z,5.0
2023-03-26T11:52:14.487Z,15.0
2023-03-26T11:53:14.430Z,8.1
2023-03-26T11:55:14.513Z,6.4
2023-03-26T11:56:15.730Z,6.3
2023-03-26T11:57:14.525Z,8.1
2023-03-26T11:58:14.486Z,9.6
2023-03-26T11:59:14.453Z,9.6
2023-03-26T12:00:14.712Z,8.8
2023-03-26T12:01:14.453Z,7.9
2023-03-26T12:02:14.552Z,7.8
2023-03-26T12:03:14.547Z,9.8
2023-03-26T12:04:14.471Z,6.7
2023-03-26T12:05:15.527Z,10.8
2023-03-26T12:06:14.543Z,8.9
2023-03-26T12:07:14.564Z,6.3
2023-03-26T12:08:14.503Z,8.1
2023-03-26T12:09:14.397Z,11.5
2023-03-26T12:10:17.722Z,5.7
2023-03-26T12:11:14.537Z,7.1
2023-03-26T12:12:14.384Z,6.4
2023-03-26T12:13:14.463Z,3.9
2023-03-26T12:14:14.434Z,5.1
2023-03-26T12:15:14.437Z,7.3
2023-03-26T12:16:14.573Z,6.3
2023-03-26T12:17:14.369Z,5.9
2023-03-26T12:18:14.401Z,6.5
2023-03-26T12:19:14.385Z,7.8
2023-03-26T12:20:14.401Z,17.4
2023-03-26T12:21:14.371Z,22.4
2023-03-26T12:22:14.620Z,12.1
2023-03-26T12:23:14.408Z,16.1
2023-03-26T12:24:14.413Z,17.2
2023-03-26T12:25:14.347Z,13.1
2023-03-26T12:26:14.392Z,22.2
2023-03-26T12:27:14.433Z,10.4
2023-03-26T12:28:14.473Z,5.2
2023-03-26T12:29:14.392Z,7.1
2023-03-26T12:30:14.394Z,13.4
2023-03-26T12:31:14.429Z,6.0
2023-03-26T12:32:14.422Z,13.1
2023-03-26T12:33:14.563Z,12.9
2023-03-26T12:34:14.417Z,13.7
2023-03-26T12:35:14.355Z,5.6
2023-03-26T12:36:14.419Z,9.4
2023-03-26T12:37:14.416Z,4.6
2023-03-26T12:38:14.360Z,4.1
2023-03-26T12:39:42.702Z,6.9
2023-03-26T12:40:18.292Z,7.5
2023-03-26T12:43:51.591Z,4.7
2023-03-26T12:44:44.853Z,6.8
2023-03-26T12:44:46.409Z,7.1
2023-03-26T12:44:50.407Z,4.9
2023-03-26T12:45:14.457Z,4.8
2023-03-26T12:47:57.876Z,9.2
2023-03-26T12:47:58.375Z,5.5
2023-03-26T12:48:14.714Z,7.1
2023-03-26T12:49:14.591Z,6.1
2023-03-26T12:50:14.717Z,4.2
2023-03-26T12:51:14.602Z,4.3
2023-03-26T12:52:14.653Z,5.9
2023-03-26T12:53:14.779Z,17.4
2023-03-26T12:54:14.395Z,8.4
2023-03-26T12:55:14.306Z,8.0
2023-03-26T12:56:14.360Z,6.9
2023-03-26T12:57:14.400Z,10.0
2023-03-26T12:58:14.514Z,4.9
2023-03-26T12:59:14.349Z,6.8
2023-03-26T13:00:16.535Z,5.6
2023-03-26T13:01:14.360Z,7.4
2023-03-26T13:02:14.389Z,6.5
2023-03-26T13:03:14.512Z,14.7
2023-03-26T13:04:14.340Z,11.6
2023-03-26T13:05:14.516Z,21.0
2023-03-26T13:06:16.919Z,7.9
2023-03-26T13:07:14.287Z,10.6
2023-03-26T13:08:14.342Z,10.2
2023-03-26T13:09:14.414Z,12.9
2023-03-26T13:10:14.727Z,12.6
2023-03-26T13:11:14.350Z,12.4
2023-03-26T13:12:14.342Z,14.9
2023-03-26T13:13:14.329Z,11.7
2023-03-26T13:14:14.348Z,6.3
2023-03-26T13:15:14.351Z,7.1
2023-03-26T13:16:14.391Z,5.2
2023-03-26T13:17:14.312Z,8.2
2023-03-26T13:18:14.402Z,9.1
2023-03-26T13:19:14.397Z,9.4
2023-03-26T13:20:15.509Z,8.9
2023-03-26T13:21:14.356Z,7.2
2023-03-26T13:22:14.301Z,9.0
2023-03-26T13:23:14.317Z,7.0
2023-03-26T13:24:14.511Z,7.6
2023-03-26T13:25:16.544Z,7.4
2023-03-26T13:26:14.315Z,9.7
2023-03-26T13:27:14.425Z,7.2
2023-03-26T13:28:14.317Z,8.6
2023-03-26T13:29:14.285Z,10.9
2023-03-26T13:30:14.353Z,9.8
2023-03-26T13:31:14.334Z,7.0
2023-03-26T13:32:14.352Z,12.1
2023-03-26T13:33:15.353Z,6.0
2023-03-26T13:34:14.275Z,7.7
2023-03-26T13:35:14.393Z,6.5
2023-03-26T13:36:22.529Z,6.2
2023-03-26T13:37:14.340Z,7.3
2023-03-26T13:38:14.485Z,5.9
2023-03-26T13:39:15.663Z,6.4
2023-03-26T13:40:14.441Z,8.3
2023-03-26T13:41:14.245Z,10.7